sensor_id;sensor_type;location;lat;lon;timestamp;P1;durP1;ratioP1;P2;durP2;ratioP2
33403;SDS011;19751;40.274;18.268;2022-10-22T00:00:31;12.38;;;7.97;;
33403;SDS011;19751;40.274;18.268;2022-10-22T00:02:57;9.57;;;6.28;;
33403;SDS011;19751;40.274;18.268;2022-10-22T00:05:22;10.38;;;6.80;;
33403;SDS011;19751;40.274;18.268;2022-10-22T00:07:49;9.25;;;6.50;;
33403;SDS011;19751;40.274;18.268;2022-10-22T00:10:14;10.30;;;6.38;;
33403;SDS011;19751;40.274;18.268;2022-10-22T00:12:41;9.80;;;6.82;;
33403;SDS011;19751;40.274;18.268;2022-10-22T00:15:07;9.38;;;6.70;;
33403;SDS011;19751;40.274;18.268;2022-10-22T00:17:32;10.48;;;7.25;;
33403;SDS011;19751;40.274;18.268;2022-10-22T00:19:58;8.43;;;6.07;;
33403;SDS011;19751;40.274;18.268;2022-10-22T00:22:24;13.18;;;6.35;;
33403;SDS011;19751;40.274;18.268;2022-10-22T00:24:49;9.10;;;6.50;;
33403;SDS011;19751;40.274;18.268;2022-10-22T00:27:14;11.57;;;5.63;;
33403;SDS011;19751;40.274;18.268;2022-10-22T00:29:40;9.20;;;5.63;;
33403;SDS011;19751;40.274;18.268;2022-10-22T00:32:06;8.10;;;6.10;;
33403;SDS011;19751;40.274;18.268;2022-10-22T00:34:31;9.75;;;6.60;;
33403;SDS011;19751;40.274;18.268;2022-10-22T00:36:57;7.43;;;5.85;;
33403;SDS011;19751;40.274;18.268;2022-10-22T00:39:26;9.95;;;7.15;;
33403;SDS011;19751;40.274;18.268;2022-10-22T00:41:52;9.88;;;6.18;;
33403;SDS011;19751;40.274;18.268;2022-10-22T00:47:26;10.23;;;6.88;;
33403;SDS011;19751;40.274;18.268;2022-10-22T00:49:55;8.50;;;6.25;;
33403;SDS011;19751;40.274;18.268;2022-10-22T00:52:22;8.27;;;5.95;;
33403;SDS011;19751;40.274;18.268;2022-10-22T00:54:49;8.50;;;6.40;;
33403;SDS011;19751;40.274;18.268;2022-10-22T00:57:15;7.78;;;6.10;;
33403;SDS011;19751;40.274;18.268;2022-10-22T00:59:43;11.27;;;5.95;;
33403;SDS011;19751;40.274;18.268;2022-10-22T01:02:09;7.70;;;5.85;;
33403;SDS011;19751;40.274;18.268;2022-10-22T01:04:35;8.38;;;5.28;;
33403;SDS011;19751;40.274;18.268;2022-10-22T01:07:00;9.68;;;6.00;;
33403;SDS011;19751;40.274;18.268;2022-10-22T01:17:41;11.02;;;6.35;;
33403;SDS011;19751;40.274;18.268;2022-10-22T01:29:08;9.57;;;6.07;;
33403;SDS011;19751;40.274;18.268;2022-10-22T01:31:53;7.20;;;5.85;;
33403;SDS011;19751;40.274;18.268;2022-10-22T01:34:24;9.75;;;6.38;;
33403;SDS011;19751;40.274;18.268;2022-10-22T01:36:52;7.88;;;5.18;;
33403;SDS011;19751;40.274;18.268;2022-10-22T01:39:20;9.23;;;6.38;;
33403;SDS011;19751;40.274;18.268;2022-10-22T01:41:47;7.13;;;5.57;;
33403;SDS011;19751;40.274;18.268;2022-10-22T01:44:26;9.35;;;6.85;;
33403;SDS011;19751;40.274;18.268;2022-10-22T01:47:43;11.80;;;5.78;;
33403;SDS011;19751;40.274;18.268;2022-10-22T01:52:22;8.82;;;6.07;;
33403;SDS011;19751;40.274;18.268;2022-10-22T01:57:56;7.37;;;6.27;;
33403;SDS011;19751;40.274;18.268;2022-10-22T02:00:37;12.50;;;6.55;;
33403;SDS011;19751;40.274;18.268;2022-10-22T02:03:19;10.98;;;6.38;;
33403;SDS011;19751;40.274;18.268;2022-10-22T02:05:53;8.48;;;6.20;;
33403;SDS011;19751;40.274;18.268;2022-10-22T02:08:30;8.52;;;6.75;;
33403;SDS011;19751;40.274;18.268;2022-10-22T02:10:57;8.77;;;6.40;;
33403;SDS011;19751;40.274;18.268;2022-10-22T02:13:26;11.35;;;6.90;;
33403;SDS011;19751;40.274;18.268;2022-10-22T02:15:55;7.90;;;5.93;;
33403;SDS011;19751;40.274;18.268;2022-10-22T02:18:23;9.70;;;5.90;;
33403;SDS011;19751;40.274;18.268;2022-10-22T02:20:52;7.18;;;5.57;;
33403;SDS011;19751;40.274;18.268;2022-10-22T02:23:19;7.07;;;5.10;;
33403;SDS011;19751;40.274;18.268;2022-10-22T02:25:46;10.10;;;6.03;;
33403;SDS011;19751;40.274;18.268;2022-10-22T02:28:20;8.15;;;5.65;;
33403;SDS011;19751;40.274;18.268;2022-10-22T02:30:52;8.27;;;5.70;;
33403;SDS011;19751;40.274;18.268;2022-10-22T02:33:22;11.90;;;6.38;;
33403;SDS011;19751;40.274;18.268;2022-10-22T02:35:52;8.52;;;6.40;;
33403;SDS011;19751;40.274;18.268;2022-10-22T02:38:20;8.80;;;6.45;;
33403;SDS011;19751;40.274;18.268;2022-10-22T02:40:48;9.32;;;5.93;;
33403;SDS011;19751;40.274;18.268;2022-10-22T02:43:13;8.55;;;6.22;;
33403;SDS011;19751;40.274;18.268;2022-10-22T02:45:39;7.90;;;6.10;;
33403;SDS011;19751;40.274;18.268;2022-10-22T02:48:05;9.68;;;6.25;;
33403;SDS011;19751;40.274;18.268;2022-10-22T02:50:30;7.80;;;5.65;;
33403;SDS011;19751;40.274;18.268;2022-10-22T02:52:56;9.23;;;5.50;;
33403;SDS011;19751;40.274;18.268;2022-10-22T02:55:22;9.82;;;5.90;;
33403;SDS011;19751;40.274;18.268;2022-10-22T02:57:47;7.75;;;6.50;;
33403;SDS011;19751;40.274;18.268;2022-10-22T03:00:13;6.97;;;5.38;;
33403;SDS011;19751;40.274;18.268;2022-10-22T03:02:39;8.73;;;6.40;;
33403;SDS011;19751;40.274;18.268;2022-10-22T03:05:04;10.23;;;6.45;;
33403;SDS011;19751;40.274;18.268;2022-10-22T03:07:30;8.57;;;6.10;;
33403;SDS011;19751;40.274;18.268;2022-10-22T03:09:56;6.35;;;5.40;;
33403;SDS011;19751;40.274;18.268;2022-10-22T03:12:21;7.85;;;6.68;;
33403;SDS011;19751;40.274;18.268;2022-10-22T03:14:47;7.13;;;6.03;;
33403;SDS011;19751;40.274;18.268;2022-10-22T03:17:12;11.32;;;6.65;;
33403;SDS011;19751;40.274;18.268;2022-10-22T03:19:38;12.90;;;7.97;;
33403;SDS011;19751;40.274;18.268;2022-10-22T03:22:08;8.32;;;5.93;;
33403;SDS011;19751;40.274;18.268;2022-10-22T03:24:53;9.68;;;6.55;;
33403;SDS011;19751;40.274;18.268;2022-10-22T03:27:22;6.70;;;6.00;;
33403;SDS011;19751;40.274;18.268;2022-10-22T03:29:49;8.70;;;6.07;;
33403;SDS011;19751;40.274;18.268;2022-10-22T03:32:16;9.43;;;6.47;;
33403;SDS011;19751;40.274;18.268;2022-10-22T03:34:42;9.65;;;7.00;;
33403;SDS011;19751;40.274;18.268;2022-10-22T03:37:07;9.63;;;7.22;;
33403;SDS011;19751;40.274;18.268;2022-10-22T03:39:33;9.23;;;7.22;;
33403;SDS011;19751;40.274;18.268;2022-10-22T03:42:01;9.32;;;6.80;;
33403;SDS011;19751;40.274;18.268;2022-10-22T03:44:28;12.98;;;7.10;;
33403;SDS011;19751;40.274;18.268;2022-10-22T03:46:54;10.32;;;7.03;;
33403;SDS011;19751;40.274;18.268;2022-10-22T03:49:20;13.90;;;6.55;;
33403;SDS011;19751;40.274;18.268;2022-10-22T03:51:45;7.47;;;5.95;;
33403;SDS011;19751;40.274;18.268;2022-10-22T03:54:10;11.85;;;7.93;;
33403;SDS011;19751;40.274;18.268;2022-10-22T03:56:36;9.23;;;6.85;;
33403;SDS011;19751;40.274;18.268;2022-10-22T03:59:01;9.95;;;6.53;;
33403;SDS011;19751;40.274;18.268;2022-10-22T04:01:28;9.38;;;7.28;;
33403;SDS011;19751;40.274;18.268;2022-10-22T04:03:54;7.68;;;5.88;;
33403;SDS011;19751;40.274;18.268;2022-10-22T04:06:21;12.13;;;6.45;;
33403;SDS011;19751;40.274;18.268;2022-10-22T04:08:47;8.75;;;5.75;;
33403;SDS011;19751;40.274;18.268;2022-10-22T04:11:13;10.18;;;5.95;;
33403;SDS011;19751;40.274;18.268;2022-10-22T04:13:40;8.45;;;6.47;;
33403;SDS011;19751;40.274;18.268;2022-10-22T04:16:07;9.85;;;7.22;;
33403;SDS011;19751;40.274;18.268;2022-10-22T04:18:40;9.20;;;6.15;;
33403;SDS011;19751;40.274;18.268;2022-10-22T04:21:07;8.00;;;6.30;;
33403;SDS011;19751;40.274;18.268;2022-10-22T04:23:34;8.18;;;5.68;;
33403;SDS011;19751;40.274;18.268;2022-10-22T04:26:00;7.97;;;5.93;;
33403;SDS011;19751;40.274;18.268;2022-10-22T04:28:27;10.57;;;6.78;;
33403;SDS011;19751;40.274;18.268;2022-10-22T04:30:52;9.38;;;6.47;;
33403;SDS011;19751;40.274;18.268;2022-10-22T04:33:18;9.85;;;6.05;;
33403;SDS011;19751;40.274;18.268;2022-10-22T04:35:44;8.60;;;6.80;;
33403;SDS011;19751;40.274;18.268;2022-10-22T04:38:09;11.18;;;6.03;;
33403;SDS011;19751;40.274;18.268;2022-10-22T04:40:36;9.45;;;7.05;;
33403;SDS011;19751;40.274;18.268;2022-10-22T04:43:01;10.02;;;6.60;;
33403;SDS011;19751;40.274;18.268;2022-10-22T04:45:27;13.93;;;7.18;;
33403;SDS011;19751;40.274;18.268;2022-10-22T04:47:52;9.00;;;6.90;;
33403;SDS011;19751;40.274;18.268;2022-10-22T04:50:18;11.07;;;6.68;;
33403;SDS011;19751;40.274;18.268;2022-10-22T04:52:43;12.95;;;7.03;;
33403;SDS011;19751;40.274;18.268;2022-10-22T04:55:09;9.38;;;6.43;;
33403;SDS011;19751;40.274;18.268;2022-10-22T04:57:34;9.93;;;6.80;;
33403;SDS011;19751;40.274;18.268;2022-10-22T05:00:00;12.38;;;7.10;;
33403;SDS011;19751;40.274;18.268;2022-10-22T05:02:26;10.32;;;6.70;;
33403;SDS011;19751;40.274;18.268;2022-10-22T05:04:51;11.30;;;7.05;;
33403;SDS011;19751;40.274;18.268;2022-10-22T05:07:17;10.55;;;6.55;;
33403;SDS011;19751;40.274;18.268;2022-10-22T05:09:43;13.43;;;6.03;;
33403;SDS011;19751;40.274;18.268;2022-10-22T05:12:09;9.98;;;6.25;;
33403;SDS011;19751;40.274;18.268;2022-10-22T05:14:34;12.02;;;5.50;;
33403;SDS011;19751;40.274;18.268;2022-10-22T05:17:00;8.05;;;6.57;;
33403;SDS011;19751;40.274;18.268;2022-10-22T05:19:27;12.23;;;6.70;;
33403;SDS011;19751;40.274;18.268;2022-10-22T05:21:55;7.15;;;5.85;;
33403;SDS011;19751;40.274;18.268;2022-10-22T05:24:22;7.88;;;5.97;;
33403;SDS011;19751;40.274;18.268;2022-10-22T05:26:49;7.35;;;5.60;;
33403;SDS011;19751;40.274;18.268;2022-10-22T05:29:15;6.53;;;5.82;;
33403;SDS011;19751;40.274;18.268;2022-10-22T05:31:41;7.50;;;4.80;;
33403;SDS011;19751;40.274;18.268;2022-10-22T05:34:10;10.52;;;5.13;;
33403;SDS011;19751;40.274;18.268;2022-10-22T05:36:35;6.55;;;5.40;;
33403;SDS011;19751;40.274;18.268;2022-10-22T05:39:01;6.68;;;4.47;;
33403;SDS011;19751;40.274;18.268;2022-10-22T05:41:27;5.70;;;4.55;;
33403;SDS011;19751;40.274;18.268;2022-10-22T05:43:57;6.05;;;4.55;;
33403;SDS011;19751;40.274;18.268;2022-10-22T05:46:25;6.32;;;4.88;;
33403;SDS011;19751;40.274;18.268;2022-10-22T05:48:56;6.13;;;5.18;;
33403;SDS011;19751;40.274;18.268;2022-10-22T05:51:23;5.13;;;4.63;;
33403;SDS011;19751;40.274;18.268;2022-10-22T05:53:57;5.93;;;4.93;;
33403;SDS011;19751;40.274;18.268;2022-10-22T05:56:24;6.50;;;5.83;;
33403;SDS011;19751;40.274;18.268;2022-10-22T05:58:51;9.10;;;5.05;;
33403;SDS011;19751;40.274;18.268;2022-10-22T06:01:18;5.05;;;4.55;;
33403;SDS011;19751;40.274;18.268;2022-10-22T06:03:46;5.93;;;5.10;;
33403;SDS011;19751;40.274;18.268;2022-10-22T06:09:04;5.50;;;4.63;;
33403;SDS011;19751;40.274;18.268;2022-10-22T06:11:36;4.90;;;4.43;;
33403;SDS011;19751;40.274;18.268;2022-10-22T06:14:02;4.55;;;4.13;;
33403;SDS011;19751;40.274;18.268;2022-10-22T06:16:29;4.90;;;4.40;;
33403;SDS011;19751;40.274;18.268;2022-10-22T06:18:55;4.15;;;3.83;;
33403;SDS011;19751;40.274;18.268;2022-10-22T06:21:23;6.47;;;4.85;;
33403;SDS011;19751;40.274;18.268;2022-10-22T06:23:48;5.63;;;4.60;;
33403;SDS011;19751;40.274;18.268;2022-10-22T06:26:14;5.47;;;4.95;;
33403;SDS011;19751;40.274;18.268;2022-10-22T06:28:43;5.40;;;4.82;;
33403;SDS011;19751;40.274;18.268;2022-10-22T06:31:08;5.22;;;4.50;;
33403;SDS011;19751;40.274;18.268;2022-10-22T06:33:34;6.57;;;4.80;;
33403;SDS011;19751;40.274;18.268;2022-10-22T06:36:10;6.00;;;4.70;;
33403;SDS011;19751;40.274;18.268;2022-10-22T06:38:43;6.05;;;4.15;;
33403;SDS011;19751;40.274;18.268;2022-10-22T06:41:11;5.65;;;4.30;;
33403;SDS011;19751;40.274;18.268;2022-10-22T06:43:38;7.38;;;4.20;;
33403;SDS011;19751;40.274;18.268;2022-10-22T06:46:05;4.63;;;4.20;;
33403;SDS011;19751;40.274;18.268;2022-10-22T06:48:33;6.65;;;4.80;;
33403;SDS011;19751;40.274;18.268;2022-10-22T06:51:06;5.38;;;4.85;;
33403;SDS011;19751;40.274;18.268;2022-10-22T06:53:33;7.00;;;4.93;;
33403;SDS011;19751;40.274;18.268;2022-10-22T06:56:06;7.75;;;4.30;;
33403;SDS011;19751;40.274;18.268;2022-10-22T06:58:33;6.32;;;4.35;;
33403;SDS011;19751;40.274;18.268;2022-10-22T07:01:03;5.90;;;5.40;;
33403;SDS011;19751;40.274;18.268;2022-10-22T07:03:30;5.85;;;4.63;;
33403;SDS011;19751;40.274;18.268;2022-10-22T07:06:02;7.35;;;5.25;;
33403;SDS011;19751;40.274;18.268;2022-10-22T07:08:30;6.55;;;4.85;;
33403;SDS011;19751;40.274;18.268;2022-10-22T07:10:56;5.32;;;4.88;;
33403;SDS011;19751;40.274;18.268;2022-10-22T07:13:29;6.07;;;4.55;;
33403;SDS011;19751;40.274;18.268;2022-10-22T07:15:54;6.70;;;5.20;;
33403;SDS011;19751;40.274;18.268;2022-10-22T07:18:20;5.35;;;4.82;;
33403;SDS011;19751;40.274;18.268;2022-10-22T07:20:46;4.90;;;4.50;;
33403;SDS011;19751;40.274;18.268;2022-10-22T07:23:13;5.55;;;4.78;;
33403;SDS011;19751;40.274;18.268;2022-10-22T07:25:39;6.03;;;4.90;;
33403;SDS011;19751;40.274;18.268;2022-10-22T07:28:05;6.75;;;5.03;;
33403;SDS011;19751;40.274;18.268;2022-10-22T07:30:31;15.13;;;5.20;;
33403;SDS011;19751;40.274;18.268;2022-10-22T07:32:57;6.32;;;5.03;;
33403;SDS011;19751;40.274;18.268;2022-10-22T07:35:22;5.93;;;4.78;;
33403;SDS011;19751;40.274;18.268;2022-10-22T07:37:48;6.20;;;4.80;;
33403;SDS011;19751;40.274;18.268;2022-10-22T07:40:13;7.65;;;4.93;;
33403;SDS011;19751;40.274;18.268;2022-10-22T07:42:39;7.72;;;4.95;;
33403;SDS011;19751;40.274;18.268;2022-10-22T07:45:04;8.57;;;5.68;;
33403;SDS011;19751;40.274;18.268;2022-10-22T07:47:30;5.20;;;4.70;;
33403;SDS011;19751;40.274;18.268;2022-10-22T07:49:56;5.20;;;4.70;;
33403;SDS011;19751;40.274;18.268;2022-10-22T07:52:21;6.63;;;5.15;;
33403;SDS011;19751;40.274;18.268;2022-10-22T07:54:47;5.03;;;4.18;;
33403;SDS011;19751;40.274;18.268;2022-10-22T07:57:12;5.18;;;4.30;;
33403;SDS011;19751;40.274;18.268;2022-10-22T07:59:38;7.57;;;5.70;;
33403;SDS011;19751;40.274;18.268;2022-10-22T08:02:03;6.75;;;5.10;;
33403;SDS011;19751;40.274;18.268;2022-10-22T08:04:29;9.63;;;4.72;;
33403;SDS011;19751;40.274;18.268;2022-10-22T08:06:54;6.28;;;4.93;;
33403;SDS011;19751;40.274;18.268;2022-10-22T08:09:20;5.97;;;5.03;;
33403;SDS011;19751;40.274;18.268;2022-10-22T08:11:45;7.60;;;4.68;;
33403;SDS011;19751;40.274;18.268;2022-10-22T08:14:11;8.57;;;5.03;;
33403;SDS011;19751;40.274;18.268;2022-10-22T08:16:36;6.40;;;5.18;;
33403;SDS011;19751;40.274;18.268;2022-10-22T08:19:02;7.38;;;5.22;;
33403;SDS011;19751;40.274;18.268;2022-10-22T08:21:27;6.85;;;5.35;;
33403;SDS011;19751;40.274;18.268;2022-10-22T08:23:54;7.53;;;5.55;;
33403;SDS011;19751;40.274;18.268;2022-10-22T08:26:19;7.35;;;5.82;;
33403;SDS011;19751;40.274;18.268;2022-10-22T08:28:45;7.45;;;5.90;;
33403;SDS011;19751;40.274;18.268;2022-10-22T08:31:11;8.05;;;5.88;;
33403;SDS011;19751;40.274;18.268;2022-10-22T08:33:36;9.25;;;5.80;;
33403;SDS011;19751;40.274;18.268;2022-10-22T08:36:03;6.03;;;5.47;;
33403;SDS011;19751;40.274;18.268;2022-10-22T08:38:29;6.95;;;5.57;;
33403;SDS011;19751;40.274;18.268;2022-10-22T08:41:09;8.30;;;6.50;;
33403;SDS011;19751;40.274;18.268;2022-10-22T08:49:08;9.65;;;6.15;;
33403;SDS011;19751;40.274;18.268;2022-10-22T08:51:41;7.88;;;7.07;;
33403;SDS011;19751;40.274;18.268;2022-10-22T08:56:34;6.78;;;6.18;;
33403;SDS011;19751;40.274;18.268;2022-10-22T08:59:10;10.52;;;6.32;;
33403;SDS011;19751;40.274;18.268;2022-10-22T09:01:44;8.90;;;6.55;;
33403;SDS011;19751;40.274;18.268;2022-10-22T09:06:59;8.07;;;6.57;;
33403;SDS011;19751;40.274;18.268;2022-10-22T09:09:26;10.93;;;8.00;;
33403;SDS011;19751;40.274;18.268;2022-10-22T09:11:56;8.70;;;6.38;;
33403;SDS011;19751;40.274;18.268;2022-10-22T09:14:24;6.53;;;5.50;;
33403;SDS011;19751;40.274;18.268;2022-10-22T09:17:11;10.90;;;5.68;;
33403;SDS011;19751;40.274;18.268;2022-10-22T09:25:25;8.25;;;6.55;;
33403;SDS011;19751;40.274;18.268;2022-10-22T09:27:52;8.70;;;6.03;;
33403;SDS011;19751;40.274;18.268;2022-10-22T09:30:26;7.57;;;5.88;;
33403;SDS011;19751;40.274;18.268;2022-10-22T09:33:05;10.10;;;7.13;;
33403;SDS011;19751;40.274;18.268;2022-10-22T09:35:44;11.05;;;6.93;;
33403;SDS011;19751;40.274;18.268;2022-10-22T09:38:18;7.60;;;6.53;;
33403;SDS011;19751;40.274;18.268;2022-10-22T09:40:48;6.65;;;5.80;;
33403;SDS011;19751;40.274;18.268;2022-10-22T09:43:15;8.38;;;6.65;;
33403;SDS011;19751;40.274;18.268;2022-10-22T09:45:42;7.30;;;6.10;;
33403;SDS011;19751;40.274;18.268;2022-10-22T09:51:14;9.68;;;6.55;;
33403;SDS011;19751;40.274;18.268;2022-10-22T09:53:43;6.40;;;5.53;;
33403;SDS011;19751;40.274;18.268;2022-10-22T09:56:17;7.20;;;6.45;;
33403;SDS011;19751;40.274;18.268;2022-10-22T09:58:49;6.95;;;5.75;;
33403;SDS011;19751;40.274;18.268;2022-10-22T10:01:21;9.80;;;6.18;;
33403;SDS011;19751;40.274;18.268;2022-10-22T10:03:49;9.90;;;6.93;;
33403;SDS011;19751;40.274;18.268;2022-10-22T10:06:18;6.88;;;6.00;;
33403;SDS011;19751;40.274;18.268;2022-10-22T10:08:45;9.07;;;6.28;;
33403;SDS011;19751;40.274;18.268;2022-10-22T10:11:16;9.00;;;5.97;;
33403;SDS011;19751;40.274;18.268;2022-10-22T10:14:10;6.43;;;5.75;;
33403;SDS011;19751;40.274;18.268;2022-10-22T10:19:33;8.13;;;6.00;;
33403;SDS011;19751;40.274;18.268;2022-10-22T10:27:55;10.38;;;5.97;;
33403;SDS011;19751;40.274;18.268;2022-10-22T10:30:51;8.70;;;5.85;;
33403;SDS011;19751;40.274;18.268;2022-10-22T10:37:09;10.00;;;6.25;;
33403;SDS011;19751;40.274;18.268;2022-10-22T10:39:54;6.35;;;5.45;;
33403;SDS011;19751;40.274;18.268;2022-10-22T10:42:50;8.30;;;6.22;;
33403;SDS011;19751;40.274;18.268;2022-10-22T11:04:33;8.82;;;5.80;;
33403;SDS011;19751;40.274;18.268;2022-10-22T11:07:16;7.38;;;5.68;;
33403;SDS011;19751;40.274;18.268;2022-10-22T11:09:54;7.65;;;6.88;;
33403;SDS011;19751;40.274;18.268;2022-10-22T11:12:32;9.70;;;6.35;;
33403;SDS011;19751;40.274;18.268;2022-10-22T11:17:44;8.50;;;5.97;;
33403;SDS011;19751;40.274;18.268;2022-10-22T11:20:14;9.32;;;6.38;;
33403;SDS011;19751;40.274;18.268;2022-10-22T11:22:47;6.35;;;5.75;;
33403;SDS011;19751;40.274;18.268;2022-10-22T11:25:20;7.00;;;5.57;;
33403;SDS011;19751;40.274;18.268;2022-10-22T11:28:02;7.65;;;6.55;;
33403;SDS011;19751;40.274;18.268;2022-10-22T11:30:36;8.77;;;6.80;;
33403;SDS011;19751;40.274;18.268;2022-10-22T11:33:06;7.25;;;6.18;;
33403;SDS011;19751;40.274;18.268;2022-10-22T11:35:39;8.23;;;6.93;;
33403;SDS011;19751;40.274;18.268;2022-10-22T11:38:09;6.38;;;5.85;;
33403;SDS011;19751;40.274;18.268;2022-10-22T11:40:43;7.45;;;6.65;;
33403;SDS011;19751;40.274;18.268;2022-10-22T11:43:24;7.13;;;5.85;;
33403;SDS011;19751;40.274;18.268;2022-10-22T11:48:38;8.38;;;7.55;;
33403;SDS011;19751;40.274;18.268;2022-10-22T11:51:14;7.88;;;7.07;;
33403;SDS011;19751;40.274;18.268;2022-10-22T11:54:00;7.72;;;6.30;;
33403;SDS011;19751;40.274;18.268;2022-10-22T11:56:46;6.18;;;5.55;;
33403;SDS011;19751;40.274;18.268;2022-10-22T11:59:37;10.10;;;6.38;;
33403;SDS011;19751;40.274;18.268;2022-10-22T12:02:21;8.40;;;6.93;;
33403;SDS011;19751;40.274;18.268;2022-10-22T12:04:48;12.25;;;6.75;;
33403;SDS011;19751;40.274;18.268;2022-10-22T12:07:33;7.93;;;6.20;;
33403;SDS011;19751;40.274;18.268;2022-10-22T12:10:20;9.00;;;6.43;;
33403;SDS011;19751;40.274;18.268;2022-10-22T12:12:56;9.40;;;6.72;;
33403;SDS011;19751;40.274;18.268;2022-10-22T12:15:25;8.52;;;5.95;;
33403;SDS011;19751;40.274;18.268;2022-10-22T12:17:58;8.90;;;7.03;;
33403;SDS011;19751;40.274;18.268;2022-10-22T12:20:26;7.18;;;6.28;;
33403;SDS011;19751;40.274;18.268;2022-10-22T12:22:52;10.65;;;7.13;;
33403;SDS011;19751;40.274;18.268;2022-10-22T12:25:24;8.82;;;6.32;;
33403;SDS011;19751;40.274;18.268;2022-10-22T12:27:54;9.45;;;6.20;;
33403;SDS011;19751;40.274;18.268;2022-10-22T12:30:23;7.65;;;6.30;;
33403;SDS011;19751;40.274;18.268;2022-10-22T12:32:54;7.97;;;6.32;;
33403;SDS011;19751;40.274;18.268;2022-10-22T12:35:23;11.85;;;6.75;;
33403;SDS011;19751;40.274;18.268;2022-10-22T12:37:51;6.97;;;6.03;;
33403;SDS011;19751;40.274;18.268;2022-10-22T12:40:26;7.20;;;5.95;;
33403;SDS011;19751;40.274;18.268;2022-10-22T12:42:58;7.60;;;5.68;;
33403;SDS011;19751;40.274;18.268;2022-10-22T12:45:26;8.70;;;7.03;;
33403;SDS011;19751;40.274;18.268;2022-10-22T12:47:57;12.98;;;6.25;;
33403;SDS011;19751;40.274;18.268;2022-10-22T12:50:30;7.38;;;6.00;;
33403;SDS011;19751;40.274;18.268;2022-10-22T12:52:59;7.47;;;5.90;;
33403;SDS011;19751;40.274;18.268;2022-10-22T12:55:24;7.50;;;5.05;;
33403;SDS011;19751;40.274;18.268;2022-10-22T12:57:51;8.32;;;6.40;;
33403;SDS011;19751;40.274;18.268;2022-10-22T13:02:51;8.13;;;5.50;;
33403;SDS011;19751;40.274;18.268;2022-10-22T13:05:22;7.10;;;5.32;;
33403;SDS011;19751;40.274;18.268;2022-10-22T13:08:10;6.15;;;5.15;;
33403;SDS011;19751;40.274;18.268;2022-10-22T13:10:41;7.47;;;5.55;;
33403;SDS011;19751;40.274;18.268;2022-10-22T13:16:25;5.32;;;4.82;;
33403;SDS011;19751;40.274;18.268;2022-10-22T13:18:52;6.35;;;5.50;;
33403;SDS011;19751;40.274;18.268;2022-10-22T13:21:22;9.70;;;5.28;;
33403;SDS011;19751;40.274;18.268;2022-10-22T13:24:00;9.07;;;6.30;;
33403;SDS011;19751;40.274;18.268;2022-10-22T13:26:42;9.13;;;5.43;;
33403;SDS011;19751;40.274;18.268;2022-10-22T13:29:17;5.75;;;5.15;;
33403;SDS011;19751;40.274;18.268;2022-10-22T13:31:49;9.57;;;6.07;;
33403;SDS011;19751;40.274;18.268;2022-10-22T13:34:29;6.60;;;4.95;;
33403;SDS011;19751;40.274;18.268;2022-10-22T13:36:55;9.35;;;5.90;;
33403;SDS011;19751;40.274;18.268;2022-10-22T13:39:22;7.68;;;5.38;;
33403;SDS011;19751;40.274;18.268;2022-10-22T13:41:49;6.50;;;5.05;;
33403;SDS011;19751;40.274;18.268;2022-10-22T13:44:16;5.85;;;4.80;;
33403;SDS011;19751;40.274;18.268;2022-10-22T13:46:42;7.15;;;5.50;;
33403;SDS011;19751;40.274;18.268;2022-10-22T13:49:13;5.50;;;4.97;;
33403;SDS011;19751;40.274;18.268;2022-10-22T13:51:40;5.88;;;5.28;;
33403;SDS011;19751;40.274;18.268;2022-10-22T13:54:12;10.63;;;5.60;;
33403;SDS011;19751;40.274;18.268;2022-10-22T13:56:43;8.45;;;5.20;;
33403;SDS011;19751;40.274;18.268;2022-10-22T13:59:09;7.75;;;4.90;;
33403;SDS011;19751;40.274;18.268;2022-10-22T14:01:35;6.13;;;5.35;;
33403;SDS011;19751;40.274;18.268;2022-10-22T14:04:02;5.70;;;5.13;;
33403;SDS011;19751;40.274;18.268;2022-10-22T14:06:29;7.15;;;5.95;;
33403;SDS011;19751;40.274;18.268;2022-10-22T14:08:57;8.30;;;5.75;;
33403;SDS011;19751;40.274;18.268;2022-10-22T14:11:35;5.70;;;4.90;;
33403;SDS011;19751;40.274;18.268;2022-10-22T14:14:01;11.77;;;6.65;;
33403;SDS011;19751;40.274;18.268;2022-10-22T14:16:32;6.22;;;5.45;;
33403;SDS011;19751;40.274;18.268;2022-10-22T14:18:59;6.40;;;5.30;;
33403;SDS011;19751;40.274;18.268;2022-10-22T14:21:25;8.52;;;5.53;;
33403;SDS011;19751;40.274;18.268;2022-10-22T14:23:57;10.07;;;5.95;;
33403;SDS011;19751;40.274;18.268;2022-10-22T14:28:52;7.95;;;5.53;;
33403;SDS011;19751;40.274;18.268;2022-10-22T14:31:18;6.40;;;5.35;;
33403;SDS011;19751;40.274;18.268;2022-10-22T14:33:44;8.02;;;6.90;;
33403;SDS011;19751;40.274;18.268;2022-10-22T14:36:16;7.72;;;6.00;;
33403;SDS011;19751;40.274;18.268;2022-10-22T14:38:44;5.28;;;4.45;;
33403;SDS011;19751;40.274;18.268;2022-10-22T14:41:15;7.20;;;5.78;;
33403;SDS011;19751;40.274;18.268;2022-10-22T14:43:41;7.22;;;5.57;;
33403;SDS011;19751;40.274;18.268;2022-10-22T14:46:07;5.68;;;5.18;;
33403;SDS011;19751;40.274;18.268;2022-10-22T14:48:35;7.63;;;5.55;;
33403;SDS011;19751;40.274;18.268;2022-10-22T14:51:01;6.00;;;5.40;;
33403;SDS011;19751;40.274;18.268;2022-10-22T14:53:28;5.75;;;5.18;;
33403;SDS011;19751;40.274;18.268;2022-10-22T14:55:53;7.57;;;5.65;;
33403;SDS011;19751;40.274;18.268;2022-10-22T14:58:23;9.02;;;5.80;;
33403;SDS011;19751;40.274;18.268;2022-10-22T15:00:50;8.98;;;5.38;;
33403;SDS011;19751;40.274;18.268;2022-10-22T15:03:16;5.93;;;5.25;;
33403;SDS011;19751;40.274;18.268;2022-10-22T15:05:42;6.60;;;5.32;;
33403;SDS011;19751;40.274;18.268;2022-10-22T15:08:09;6.60;;;4.80;;
33403;SDS011;19751;40.274;18.268;2022-10-22T15:10:35;6.63;;;4.50;;
33403;SDS011;19751;40.274;18.268;2022-10-22T15:13:01;9.07;;;5.00;;
33403;SDS011;19751;40.274;18.268;2022-10-22T15:15:26;6.53;;;5.00;;
33403;SDS011;19751;40.274;18.268;2022-10-22T15:17:52;8.35;;;5.38;;
33403;SDS011;19751;40.274;18.268;2022-10-22T15:20:18;7.00;;;5.22;;
33403;SDS011;19751;40.274;18.268;2022-10-22T15:22:44;7.07;;;6.03;;
33403;SDS011;19751;40.274;18.268;2022-10-22T15:25:09;6.03;;;5.35;;
33403;SDS011;19751;40.274;18.268;2022-10-22T15:27:37;10.48;;;5.38;;
33403;SDS011;19751;40.274;18.268;2022-10-22T15:30:03;7.32;;;5.60;;
33403;SDS011;19751;40.274;18.268;2022-10-22T15:32:30;6.25;;;5.50;;
33403;SDS011;19751;40.274;18.268;2022-10-22T15:34:57;7.30;;;5.60;;
33403;SDS011;19751;40.274;18.268;2022-10-22T15:37:23;10.23;;;5.97;;
33403;SDS011;19751;40.274;18.268;2022-10-22T15:39:48;6.57;;;5.75;;
33403;SDS011;19751;40.274;18.268;2022-10-22T15:42:14;7.47;;;5.47;;
33403;SDS011;19751;40.274;18.268;2022-10-22T15:44:40;10.05;;;6.78;;
33403;SDS011;19751;40.274;18.268;2022-10-22T15:47:06;9.57;;;6.38;;
33403;SDS011;19751;40.274;18.268;2022-10-22T15:49:32;10.80;;;5.90;;
33403;SDS011;19751;40.274;18.268;2022-10-22T15:51:59;7.03;;;5.97;;
33403;SDS011;19751;40.274;18.268;2022-10-22T15:54:26;7.28;;;5.80;;
33403;SDS011;19751;40.274;18.268;2022-10-22T15:56:54;9.52;;;6.50;;
33403;SDS011;19751;40.274;18.268;2022-10-22T15:59:20;10.02;;;6.85;;
33403;SDS011;19751;40.274;18.268;2022-10-22T16:01:46;8.73;;;6.15;;
33403;SDS011;19751;40.274;18.268;2022-10-22T16:04:12;8.27;;;6.18;;
33403;SDS011;19751;40.274;18.268;2022-10-22T16:06:39;6.45;;;5.65;;
33403;SDS011;19751;40.274;18.268;2022-10-22T16:09:08;9.73;;;6.50;;
33403;SDS011;19751;40.274;18.268;2022-10-22T16:11:35;8.93;;;6.68;;
33403;SDS011;19751;40.274;18.268;2022-10-22T16:14:02;7.22;;;6.53;;
33403;SDS011;19751;40.274;18.268;2022-10-22T16:16:30;7.72;;;6.15;;